< Typhoon 196128 1961 Season Typhoon 196201 >
Typhoon 196129 (ELLEN)
General InformationTrack Information on Google Maps || Disaster Info.ResourceGoogle EarthGE AnimationAtom FeedGeoJSON
Detalied Best Track (Time Zone = UTC)
Year Month Day Hour Lat. Long. Pressure (hPa) Wind (kt) Class Image Chart
1961 12 5 18 8.5 135.5 1002 0 2 -- Chart
1961 12 6 00 9.0 134.6 1004 0 2 -- Chart
1961 12 6 06 9.6 133.7 1002 0 2 -- Chart
1961 12 6 12 10.2 132.7 1000 0 2 -- Chart
1961 12 6 18 10.7 131.7 1002 0 2 -- Chart
1961 12 7 00 11.2 130.7 998 0 2 -- Chart
1961 12 7 06 11.4 129.9 995 0 9 -- Chart
1961 12 7 12 11.6 128.9 985 0 9 -- Chart
1961 12 7 18 12.2 128.1 975 0 9 -- Chart
1961 12 8 00 12.5 127.3 965 0 9 -- Chart
1961 12 8 06 13.0 126.5 960 0 9 -- Chart
1961 12 8 12 13.2 126.0 955 0 9 -- Chart
1961 12 8 18 13.7 125.2 950 0 9 -- Chart
1961 12 9 00 14.1 124.5 950 0 9 -- Chart
1961 12 9 06 14.3 124.0 945 0 9 -- Chart
1961 12 9 12 14.5 123.6 945 0 9 -- Chart
1961 12 9 18 14.8 123.5 950 0 9 -- Chart
1961 12 10 00 15.5 123.6 955 0 9 -- Chart
1961 12 10 06 15.8 123.9 960 0 9 -- Chart
1961 12 10 12 15.9 124.3 960 0 9 -- Chart
1961 12 10 18 16.4 124.5 960 0 9 -- Chart
1961 12 11 00 16.9 124.5 950 0 9 -- Chart
1961 12 11 06 17.5 124.6 955 0 9 -- Chart
1961 12 11 12 17.9 125.0 955 0 9 -- Chart
1961 12 11 18 18.4 125.5 960 0 9 -- Chart
1961 12 12 00 18.8 125.8 970 0 9 -- Chart
1961 12 12 06 19.3 126.3 980 0 9 -- Chart
1961 12 12 12 19.6 126.5 990 0 9 -- Chart
1961 12 12 18 20.0 126.7 990 0 9 -- Chart
1961 12 13 00 20.4 127.0 1000 0 9 -- Chart
1961 12 13 06 20.7 127.5 1002 0 2 -- Chart
1961 12 13 12 21.0 127.9 1004 0 2 -- Chart
1961 12 13 18 20.2 127.7 1006 0 2 -- Chart
1961 12 14 00 19.9 127.3 1010 0 2 -- Chart
1961 12 14 06 19.1 128.0 1010 0 2 -- Chart
Japan Meteorological Agency Best Track Data | Correction Date : 1989-06-01
< Typhoon 196128 1961 Season Typhoon 196201 >

Help